Armuchee, Georgia
Current Conditions -  °F | °C
As of 6:53 AM on Sunday 21 Dec 2014 (Local Time) from KRMG Reporting Station
Overcast Overcast  
Wind Chill: 42°   Ceiling: 2300
Heat Index: 42°   Visibility: 9mi
Dew Point: 37°   Wind: 3mph
Humidity: 82%   Direction: 20°NNE
Pressure: 30.2"   Gusts: NA
Location:  34.39°N, 85.18°W
Report Text: KRMG 211153Z AUTO 02003KT 9SM OVC023 06/03 A3020 RMK AO2 SLP226 T00560028 10056 20044 55003
Loading
Personal Weather Stations






























Interactive Weather Map New forecast layout! Learn more

10-Day Weather Forecast

Advertisements
Track Severe Weather on mobile